Augustaville, Pennsylvania
Current Conditions -  °F | °C
As of 4:53 AM on Saturday 01 Nov 2014 (Local Time) from KSEG Reporting Station
Overcast Overcast  
Wind Chill: 43°   Ceiling: 6000
Heat Index: 46°   Visibility: 10mi
Dew Point: 37°   Wind: 6mph
Humidity: 71%   Direction: 350°N
Pressure: 29.85"   Gusts: NA
Location:  40.83°N, 76.761°W
Report Text: KSEG 010853Z AUTO 35005KT 10SM OVC060 08/03 A2985 RMK AO2 RAE04 SLP108 P0000 60000 T00780028 58007
Loading
Personal Weather Stations






























Interactive Weather Map
Tropical Storm Tracking
New forecast layout! Learn more

10-Day Weather Forecast

Advertisements
Track Severe Weather on mobile